sensor_id;sensor_type;location;lat;lon;timestamp;temperature;humidity
10472;DHT22;5283;48.876;8.962;2023-11-18T00:01:41;5.60;99.90
10472;DHT22;5283;48.876;8.962;2023-11-18T00:04:09;5.50;99.90
10472;DHT22;5283;48.876;8.962;2023-11-18T00:06:42;5.50;99.90
10472;DHT22;5283;48.876;8.962;2023-11-18T00:09:11;5.50;99.90
10472;DHT22;5283;48.876;8.962;2023-11-18T00:11:41;5.50;99.90
10472;DHT22;5283;48.876;8.962;2023-11-18T00:14:11;5.50;99.90
10472;DHT22;5283;48.876;8.962;2023-11-18T00:16:38;5.50;99.90
10472;DHT22;5283;48.876;8.962;2023-11-18T00:19:05;5.50;99.90
10472;DHT22;5283;48.876;8.962;2023-11-18T00:21:32;5.40;99.90
10472;DHT22;5283;48.876;8.962;2023-11-18T00:23:59;5.40;99.90
10472;DHT22;5283;48.876;8.962;2023-11-18T00:26:25;5.40;99.90
10472;DHT22;5283;48.876;8.962;2023-11-18T00:28:52;5.40;99.90
10472;DHT22;5283;48.876;8.962;2023-11-18T00:31:19;5.30;99.90
10472;DHT22;5283;48.876;8.962;2023-11-18T00:33:46;5.20;99.90
10472;DHT22;5283;48.876;8.962;2023-11-18T00:36:13;5.20;99.90
10472;DHT22;5283;48.876;8.962;2023-11-18T00:38:39;5.30;99.90
10472;DHT22;5283;48.876;8.962;2023-11-18T00:41:06;5.30;99.90
10472;DHT22;5283;48.876;8.962;2023-11-18T00:43:33;5.20;99.90
10472;DHT22;5283;48.876;8.962;2023-11-18T00:46:00;5.00;99.90
10472;DHT22;5283;48.876;8.962;2023-11-18T00:48:27;4.90;99.90
10472;DHT22;5283;48.876;8.962;2023-11-18T00:50:54;4.80;99.90
10472;DHT22;5283;48.876;8.962;2023-11-18T00:53:22;4.70;99.90
10472;DHT22;5283;48.876;8.962;2023-11-18T00:55:49;4.60;99.90
10472;DHT22;5283;48.876;8.962;2023-11-18T00:58:16;4.50;99.90
10472;DHT22;5283;48.876;8.962;2023-11-18T01:00:42;4.40;99.90
10472;DHT22;5283;48.876;8.962;2023-11-18T01:03:09;4.30;99.90
10472;DHT22;5283;48.876;8.962;2023-11-18T01:05:36;4.20;99.90
10472;DHT22;5283;48.876;8.962;2023-11-18T01:08:04;4.20;99.90
10472;DHT22;5283;48.876;8.962;2023-11-18T01:10:31;4.20;99.90
10472;DHT22;5283;48.876;8.962;2023-11-18T01:12:58;4.20;99.90
10472;DHT22;5283;48.876;8.962;2023-11-18T01:15:25;4.30;99.90
10472;DHT22;5283;48.876;8.962;2023-11-18T01:17:52;4.30;99.90
10472;DHT22;5283;48.876;8.962;2023-11-18T01:20:19;4.30;99.90
10472;DHT22;5283;48.876;8.962;2023-11-18T01:22:48;4.30;99.90
10472;DHT22;5283;48.876;8.962;2023-11-18T01:25:15;4.30;99.90
10472;DHT22;5283;48.876;8.962;2023-11-18T01:27:45;4.30;99.90
10472;DHT22;5283;48.876;8.962;2023-11-18T01:30:14;4.30;99.90
10472;DHT22;5283;48.876;8.962;2023-11-18T01:32:42;4.20;99.90
10472;DHT22;5283;48.876;8.962;2023-11-18T01:35:09;4.20;99.90
10472;DHT22;5283;48.876;8.962;2023-11-18T01:37:37;4.20;99.90
10472;DHT22;5283;48.876;8.962;2023-11-18T01:40:05;4.20;99.90
10472;DHT22;5283;48.876;8.962;2023-11-18T01:42:34;4.20;99.90
10472;DHT22;5283;48.876;8.962;2023-11-18T01:45:01;4.20;99.90
10472;DHT22;5283;48.876;8.962;2023-11-18T01:47:32;4.20;99.90
10472;DHT22;5283;48.876;8.962;2023-11-18T01:50:00;4.20;99.90
10472;DHT22;5283;48.876;8.962;2023-11-18T01:52:28;4.30;99.90
10472;DHT22;5283;48.876;8.962;2023-11-18T01:54:56;4.30;99.90
10472;DHT22;5283;48.876;8.962;2023-11-18T01:57:23;4.40;99.90
10472;DHT22;5283;48.876;8.962;2023-11-18T01:59:53;4.50;99.90
10472;DHT22;5283;48.876;8.962;2023-11-18T02:02:21;4.50;99.90
10472;DHT22;5283;48.876;8.962;2023-11-18T02:04:48;4.60;99.90
10472;DHT22;5283;48.876;8.962;2023-11-18T02:07:15;4.50;99.90
10472;DHT22;5283;48.876;8.962;2023-11-18T02:09:42;4.50;99.90
10472;DHT22;5283;48.876;8.962;2023-11-18T02:12:27;4.40;99.90
10472;DHT22;5283;48.876;8.962;2023-11-18T02:14:57;4.30;99.90
10472;DHT22;5283;48.876;8.962;2023-11-18T02:17:25;4.10;99.90
10472;DHT22;5283;48.876;8.962;2023-11-18T02:19:56;3.90;99.90
10472;DHT22;5283;48.876;8.962;2023-11-18T02:22:24;3.80;99.90
10472;DHT22;5283;48.876;8.962;2023-11-18T02:24:51;3.70;99.90
10472;DHT22;5283;48.876;8.962;2023-11-18T02:27:17;3.50;99.90
10472;DHT22;5283;48.876;8.962;2023-11-18T02:29:47;3.40;99.90
10472;DHT22;5283;48.876;8.962;2023-11-18T02:37:29;3.00;99.90
10472;DHT22;5283;48.876;8.962;2023-11-18T02:40:04;3.00;99.90
10472;DHT22;5283;48.876;8.962;2023-11-18T02:42:42;2.80;99.90
10472;DHT22;5283;48.876;8.962;2023-11-18T02:45:12;2.70;99.90
10472;DHT22;5283;48.876;8.962;2023-11-18T02:47:46;2.50;99.90
10472;DHT22;5283;48.876;8.962;2023-11-18T02:50:13;2.50;99.90
10472;DHT22;5283;48.876;8.962;2023-11-18T02:52:40;2.50;99.90
10472;DHT22;5283;48.876;8.962;2023-11-18T02:55:07;2.50;99.90
10472;DHT22;5283;48.876;8.962;2023-11-18T02:57:35;2.60;99.90
10472;DHT22;5283;48.876;8.962;2023-11-18T03:00:07;2.70;99.90
10472;DHT22;5283;48.876;8.962;2023-11-18T03:02:39;2.90;99.90
10472;DHT22;5283;48.876;8.962;2023-11-18T03:05:07;3.00;99.90
10472;DHT22;5283;48.876;8.962;2023-11-18T03:07:34;3.10;99.90
10472;DHT22;5283;48.876;8.962;2023-11-18T03:10:00;3.20;99.90
10472;DHT22;5283;48.876;8.962;2023-11-18T03:12:27;3.20;99.90
10472;DHT22;5283;48.876;8.962;2023-11-18T03:14:54;3.30;99.90
10472;DHT22;5283;48.876;8.962;2023-11-18T03:17:21;3.30;99.90
10472;DHT22;5283;48.876;8.962;2023-11-18T03:19:48;3.40;99.90
10472;DHT22;5283;48.876;8.962;2023-11-18T03:22:16;3.50;99.90
10472;DHT22;5283;48.876;8.962;2023-11-18T03:24:43;3.50;99.90
10472;DHT22;5283;48.876;8.962;2023-11-18T03:27:10;3.50;99.90
10472;DHT22;5283;48.876;8.962;2023-11-18T03:29:37;3.50;99.90
10472;DHT22;5283;48.876;8.962;2023-11-18T03:32:04;3.50;99.90
10472;DHT22;5283;48.876;8.962;2023-11-18T03:34:31;3.40;99.90
10472;DHT22;5283;48.876;8.962;2023-11-18T03:36:58;3.30;99.90
10472;DHT22;5283;48.876;8.962;2023-11-18T03:39:25;3.30;99.90
10472;DHT22;5283;48.876;8.962;2023-11-18T03:41:53;3.30;99.90
10472;DHT22;5283;48.876;8.962;2023-11-18T03:44:20;3.20;99.90
10472;DHT22;5283;48.876;8.962;2023-11-18T03:46:47;3.10;99.90
10472;DHT22;5283;48.876;8.962;2023-11-18T03:49:13;3.00;99.90
10472;DHT22;5283;48.876;8.962;2023-11-18T03:51:40;2.80;99.90
10472;DHT22;5283;48.876;8.962;2023-11-18T03:54:07;2.60;99.90
10472;DHT22;5283;48.876;8.962;2023-11-18T03:56:36;2.50;99.90
10472;DHT22;5283;48.876;8.962;2023-11-18T03:59:03;2.50;99.90
10472;DHT22;5283;48.876;8.962;2023-11-18T04:01:31;2.60;99.90
10472;DHT22;5283;48.876;8.962;2023-11-18T04:03:59;2.70;99.90
10472;DHT22;5283;48.876;8.962;2023-11-18T04:06:25;2.80;99.90
10472;DHT22;5283;48.876;8.962;2023-11-18T04:08:52;2.90;99.90
10472;DHT22;5283;48.876;8.962;2023-11-18T04:11:19;2.90;99.90
10472;DHT22;5283;48.876;8.962;2023-11-18T04:13:46;2.80;99.90
10472;DHT22;5283;48.876;8.962;2023-11-18T04:16:16;2.70;99.90
10472;DHT22;5283;48.876;8.962;2023-11-18T04:18:44;2.70;99.90
10472;DHT22;5283;48.876;8.962;2023-11-18T04:21:11;2.70;99.90
10472;DHT22;5283;48.876;8.962;2023-11-18T04:23:43;2.70;99.90
10472;DHT22;5283;48.876;8.962;2023-11-18T04:26:10;2.70;99.90
10472;DHT22;5283;48.876;8.962;2023-11-18T04:28:37;2.70;99.90
10472;DHT22;5283;48.876;8.962;2023-11-18T04:31:04;2.70;99.90
10472;DHT22;5283;48.876;8.962;2023-11-18T04:33:34;2.60;99.90
10472;DHT22;5283;48.876;8.962;2023-11-18T04:36:00;2.50;99.90
10472;DHT22;5283;48.876;8.962;2023-11-18T04:38:27;2.50;99.90
10472;DHT22;5283;48.876;8.962;2023-11-18T04:40:55;2.40;99.90
10472;DHT22;5283;48.876;8.962;2023-11-18T04:43:22;2.50;99.90
10472;DHT22;5283;48.876;8.962;2023-11-18T04:45:51;2.50;99.90
10472;DHT22;5283;48.876;8.962;2023-11-18T04:48:19;2.50;99.90
10472;DHT22;5283;48.876;8.962;2023-11-18T04:50:47;2.40;99.90
10472;DHT22;5283;48.876;8.962;2023-11-18T04:53:14;2.40;99.90
10472;DHT22;5283;48.876;8.962;2023-11-18T04:55:41;2.40;99.90
10472;DHT22;5283;48.876;8.962;2023-11-18T04:58:07;2.40;99.90
10472;DHT22;5283;48.876;8.962;2023-11-18T05:00:39;2.30;99.90
10472;DHT22;5283;48.876;8.962;2023-11-18T05:03:06;2.10;99.90
10472;DHT22;5283;48.876;8.962;2023-11-18T05:05:36;2.10;99.90
10472;DHT22;5283;48.876;8.962;2023-11-18T05:08:07;2.00;99.90
10472;DHT22;5283;48.876;8.962;2023-11-18T05:10:35;2.00;99.90
10472;DHT22;5283;48.876;8.962;2023-11-18T05:13:02;2.00;99.90
10472;DHT22;5283;48.876;8.962;2023-11-18T05:15:29;1.90;99.90
10472;DHT22;5283;48.876;8.962;2023-11-18T05:17:57;1.80;99.90
10472;DHT22;5283;48.876;8.962;2023-11-18T05:20:24;1.80;99.90
10472;DHT22;5283;48.876;8.962;2023-11-18T05:22:51;1.90;99.90
10472;DHT22;5283;48.876;8.962;2023-11-18T05:25:18;1.80;99.90
10472;DHT22;5283;48.876;8.962;2023-11-18T05:27:46;1.80;99.90
10472;DHT22;5283;48.876;8.962;2023-11-18T05:30:12;1.80;99.90
10472;DHT22;5283;48.876;8.962;2023-11-18T05:32:39;1.70;99.90
10472;DHT22;5283;48.876;8.962;2023-11-18T05:35:07;1.70;99.90
10472;DHT22;5283;48.876;8.962;2023-11-18T05:37:33;1.70;99.90
10472;DHT22;5283;48.876;8.962;2023-11-18T05:40:03;1.70;99.90
10472;DHT22;5283;48.876;8.962;2023-11-18T05:42:34;1.70;99.90
10472;DHT22;5283;48.876;8.962;2023-11-18T05:45:07;1.60;99.90
10472;DHT22;5283;48.876;8.962;2023-11-18T05:47:36;1.50;99.90
10472;DHT22;5283;48.876;8.962;2023-11-18T05:50:03;1.50;99.90
10472;DHT22;5283;48.876;8.962;2023-11-18T05:52:32;1.50;99.90
10472;DHT22;5283;48.876;8.962;2023-11-18T05:54:59;1.50;99.90
10472;DHT22;5283;48.876;8.962;2023-11-18T05:57:25;1.50;99.90
10472;DHT22;5283;48.876;8.962;2023-11-18T05:59:53;1.40;99.90
10472;DHT22;5283;48.876;8.962;2023-11-18T06:02:21;1.50;99.90
10472;DHT22;5283;48.876;8.962;2023-11-18T06:04:49;1.40;99.90
10472;DHT22;5283;48.876;8.962;2023-11-18T06:07:15;1.40;99.90
10472;DHT22;5283;48.876;8.962;2023-11-18T06:09:44;1.30;99.90
10472;DHT22;5283;48.876;8.962;2023-11-18T06:12:11;1.20;99.90
10472;DHT22;5283;48.876;8.962;2023-11-18T06:14:37;1.20;99.90
10472;DHT22;5283;48.876;8.962;2023-11-18T06:17:04;1.10;99.90
10472;DHT22;5283;48.876;8.962;2023-11-18T06:19:34;0.90;99.90
10472;DHT22;5283;48.876;8.962;2023-11-18T06:22:01;0.90;99.90
10472;DHT22;5283;48.876;8.962;2023-11-18T06:24:27;1.00;99.90
10472;DHT22;5283;48.876;8.962;2023-11-18T06:26:54;1.10;99.90
10472;DHT22;5283;48.876;8.962;2023-11-18T06:29:21;1.10;99.90
10472;DHT22;5283;48.876;8.962;2023-11-18T06:31:48;1.00;99.90
10472;DHT22;5283;48.876;8.962;2023-11-18T06:34:15;0.90;99.90
10472;DHT22;5283;48.876;8.962;2023-11-18T06:36:41;0.90;99.90
10472;DHT22;5283;48.876;8.962;2023-11-18T06:39:08;0.80;99.90
10472;DHT22;5283;48.876;8.962;2023-11-18T06:41:36;0.80;99.90
10472;DHT22;5283;48.876;8.962;2023-11-18T06:44:06;0.90;99.90
10472;DHT22;5283;48.876;8.962;2023-11-18T06:46:39;1.00;99.90
10472;DHT22;5283;48.876;8.962;2023-11-18T06:49:06;1.00;99.90
10472;DHT22;5283;48.876;8.962;2023-11-18T06:51:35;1.00;99.90
10472;DHT22;5283;48.876;8.962;2023-11-18T06:54:02;1.10;99.90
10472;DHT22;5283;48.876;8.962;2023-11-18T06:56:40;1.30;99.90
10472;DHT22;5283;48.876;8.962;2023-11-18T06:59:12;1.30;99.90
10472;DHT22;5283;48.876;8.962;2023-11-18T07:01:40;1.40;99.90
10472;DHT22;5283;48.876;8.962;2023-11-18T07:04:08;1.50;99.90
10472;DHT22;5283;48.876;8.962;2023-11-18T07:06:36;1.60;99.90
10472;DHT22;5283;48.876;8.962;2023-11-18T07:09:06;1.70;99.90
10472;DHT22;5283;48.876;8.962;2023-11-18T07:11:43;1.80;99.90
10472;DHT22;5283;48.876;8.962;2023-11-18T07:14:11;1.90;99.90
10472;DHT22;5283;48.876;8.962;2023-11-18T07:16:39;2.00;99.90
10472;DHT22;5283;48.876;8.962;2023-11-18T07:19:06;2.10;99.90
10472;DHT22;5283;48.876;8.962;2023-11-18T07:21:33;2.30;99.90
10472;DHT22;5283;48.876;8.962;2023-11-18T07:24:00;2.40;99.90
10472;DHT22;5283;48.876;8.962;2023-11-18T07:26:28;2.70;99.90
10472;DHT22;5283;48.876;8.962;2023-11-18T07:28:55;2.90;99.90
10472;DHT22;5283;48.876;8.962;2023-11-18T07:31:22;3.10;99.90
10472;DHT22;5283;48.876;8.962;2023-11-18T07:33:50;3.20;99.90
10472;DHT22;5283;48.876;8.962;2023-11-18T07:36:17;3.40;99.90
10472;DHT22;5283;48.876;8.962;2023-11-18T07:38:47;3.50;99.90
10472;DHT22;5283;48.876;8.962;2023-11-18T07:41:14;3.40;99.90
10472;DHT22;5283;48.876;8.962;2023-11-18T07:43:50;3.50;99.90
10472;DHT22;5283;48.876;8.962;2023-11-18T07:46:19;3.50;99.90
10472;DHT22;5283;48.876;8.962;2023-11-18T07:48:49;3.50;99.90
10472;DHT22;5283;48.876;8.962;2023-11-18T07:51:16;3.60;99.90
10472;DHT22;5283;48.876;8.962;2023-11-18T07:53:43;3.70;99.90
10472;DHT22;5283;48.876;8.962;2023-11-18T07:56:09;3.80;99.90
10472;DHT22;5283;48.876;8.962;2023-11-18T07:58:38;3.90;99.90
10472;DHT22;5283;48.876;8.962;2023-11-18T08:01:05;4.00;99.90
10472;DHT22;5283;48.876;8.962;2023-11-18T08:03:35;4.10;99.90
10472;DHT22;5283;48.876;8.962;2023-11-18T08:06:04;4.30;99.90
10472;DHT22;5283;48.876;8.962;2023-11-18T08:08:34;4.50;99.90
10472;DHT22;5283;48.876;8.962;2023-11-18T08:11:01;4.60;99.90
10472;DHT22;5283;48.876;8.962;2023-11-18T08:13:27;4.70;99.90
10472;DHT22;5283;48.876;8.962;2023-11-18T08:15:54;4.80;99.90
10472;DHT22;5283;48.876;8.962;2023-11-18T08:18:21;4.80;99.90
10472;DHT22;5283;48.876;8.962;2023-11-18T08:20:48;5.00;99.90
10472;DHT22;5283;48.876;8.962;2023-11-18T08:23:15;5.10;99.90
10472;DHT22;5283;48.876;8.962;2023-11-18T08:25:41;5.30;99.90
10472;DHT22;5283;48.876;8.962;2023-11-18T08:28:08;5.20;99.90
10472;DHT22;5283;48.876;8.962;2023-11-18T08:30:37;5.30;99.90
10472;DHT22;5283;48.876;8.962;2023-11-18T08:33:04;5.40;99.90
10472;DHT22;5283;48.876;8.962;2023-11-18T08:35:31;5.40;99.90
10472;DHT22;5283;48.876;8.962;2023-11-18T08:37:58;5.50;99.90
10472;DHT22;5283;48.876;8.962;2023-11-18T08:40:25;5.60;99.90
10472;DHT22;5283;48.876;8.962;2023-11-18T08:42:53;5.60;99.90
10472;DHT22;5283;48.876;8.962;2023-11-18T08:45:23;5.60;99.90
10472;DHT22;5283;48.876;8.962;2023-11-18T08:48:03;5.70;99.90
10472;DHT22;5283;48.876;8.962;2023-11-18T08:50:39;5.80;99.90
10472;DHT22;5283;48.876;8.962;2023-11-18T08:53:06;5.90;99.90
10472;DHT22;5283;48.876;8.962;2023-11-18T08:55:37;5.70;99.90
10472;DHT22;5283;48.876;8.962;2023-11-18T08:58:12;6.00;99.90
10472;DHT22;5283;48.876;8.962;2023-11-18T09:00:58;6.20;99.90
10472;DHT22;5283;48.876;8.962;2023-11-18T09:03:41;6.40;99.90
10472;DHT22;5283;48.876;8.962;2023-11-18T09:06:15;6.50;99.90
10472;DHT22;5283;48.876;8.962;2023-11-18T09:08:46;6.50;99.90
10472;DHT22;5283;48.876;8.962;2023-11-18T09:11:19;6.50;99.90
10472;DHT22;5283;48.876;8.962;2023-11-18T09:13:48;6.80;99.90
10472;DHT22;5283;48.876;8.962;2023-11-18T09:16:17;7.00;99.90
10472;DHT22;5283;48.876;8.962;2023-11-18T09:18:47;7.00;99.90
10472;DHT22;5283;48.876;8.962;2023-11-18T09:21:15;7.20;99.90
10472;DHT22;5283;48.876;8.962;2023-11-18T09:23:42;7.20;99.90
10472;DHT22;5283;48.876;8.962;2023-11-18T09:26:09;7.30;99.90
10472;DHT22;5283;48.876;8.962;2023-11-18T09:28:37;7.40;99.90
10472;DHT22;5283;48.876;8.962;2023-11-18T09:31:05;7.60;99.90
10472;DHT22;5283;48.876;8.962;2023-11-18T09:33:33;7.60;99.90
10472;DHT22;5283;48.876;8.962;2023-11-18T09:36:05;7.90;99.90
10472;DHT22;5283;48.876;8.962;2023-11-18T09:38:39;8.00;99.90
10472;DHT22;5283;48.876;8.962;2023-11-18T09:41:11;8.00;99.90
10472;DHT22;5283;48.876;8.962;2023-11-18T09:43:39;8.20;99.90
10472;DHT22;5283;48.876;8.962;2023-11-18T09:46:17;8.10;99.90
10472;DHT22;5283;48.876;8.962;2023-11-18T09:48:47;7.80;99.90
10472;DHT22;5283;48.876;8.962;2023-11-18T09:51:24;8.00;99.90
10472;DHT22;5283;48.876;8.962;2023-11-18T09:53:52;8.10;99.90
10472;DHT22;5283;48.876;8.962;2023-11-18T10:01:57;8.40;99.90
10472;DHT22;5283;48.876;8.962;2023-11-18T10:04:24;8.60;99.90
10472;DHT22;5283;48.876;8.962;2023-11-18T10:06:54;8.90;99.90
10472;DHT22;5283;48.876;8.962;2023-11-18T10:09:31;9.10;99.90
10472;DHT22;5283;48.876;8.962;2023-11-18T10:12:04;9.30;99.90
10472;DHT22;5283;48.876;8.962;2023-11-18T10:14:34;9.40;99.90
10472;DHT22;5283;48.876;8.962;2023-11-18T10:17:05;9.50;99.90
10472;DHT22;5283;48.876;8.962;2023-11-18T10:19:54;9.60;99.90
10472;DHT22;5283;48.876;8.962;2023-11-18T10:22:29;9.40;99.90
10472;DHT22;5283;48.876;8.962;2023-11-18T10:24:58;9.50;99.90
10472;DHT22;5283;48.876;8.962;2023-11-18T10:27:28;9.60;99.90
10472;DHT22;5283;48.876;8.962;2023-11-18T10:29:58;9.60;99.90
10472;DHT22;5283;48.876;8.962;2023-11-18T10:32:25;9.80;99.90
10472;DHT22;5283;48.876;8.962;2023-11-18T10:34:57;10.00;99.90
10472;DHT22;5283;48.876;8.962;2023-11-18T10:37:28;10.10;99.90
10472;DHT22;5283;48.876;8.962;2023-11-18T10:39:57;10.20;99.90
10472;DHT22;5283;48.876;8.962;2023-11-18T10:42:27;9.80;99.90
10472;DHT22;5283;48.876;8.962;2023-11-18T10:44:59;9.70;99.90
10472;DHT22;5283;48.876;8.962;2023-11-18T10:47:34;9.90;99.90
10472;DHT22;5283;48.876;8.962;2023-11-18T10:50:05;10.00;99.90
10472;DHT22;5283;48.876;8.962;2023-11-18T10:52:37;10.00;99.90
10472;DHT22;5283;48.876;8.962;2023-11-18T10:55:07;10.00;99.90
10472;DHT22;5283;48.876;8.962;2023-11-18T10:57:38;10.00;99.90
10472;DHT22;5283;48.876;8.962;2023-11-18T11:00:06;9.90;99.90
10472;DHT22;5283;48.876;8.962;2023-11-18T11:02:46;9.60;99.90
10472;DHT22;5283;48.876;8.962;2023-11-18T11:05:28;9.60;99.90
10472;DHT22;5283;48.876;8.962;2023-11-18T11:07:59;9.50;99.90
10472;DHT22;5283;48.876;8.962;2023-11-18T11:10:26;9.50;99.90
10472;DHT22;5283;48.876;8.962;2023-11-18T11:12:55;9.70;99.90
10472;DHT22;5283;48.876;8.962;2023-11-18T11:15:32;9.60;99.90
10472;DHT22;5283;48.876;8.962;2023-11-18T11:18:05;9.70;99.90
10472;DHT22;5283;48.876;8.962;2023-11-18T11:32:17;10.00;99.90
10472;DHT22;5283;48.876;8.962;2023-11-18T11:34:53;10.00;99.90
10472;DHT22;5283;48.876;8.962;2023-11-18T11:37:25;9.80;99.90
10472;DHT22;5283;48.876;8.962;2023-11-18T11:39:53;9.80;99.90
10472;DHT22;5283;48.876;8.962;2023-11-18T11:42:20;9.70;99.90
10472;DHT22;5283;48.876;8.962;2023-11-18T11:44:49;9.50;99.90
10472;DHT22;5283;48.876;8.962;2023-11-18T11:47:18;9.60;99.90
10472;DHT22;5283;48.876;8.962;2023-11-18T11:50:13;9.80;99.90
10472;DHT22;5283;48.876;8.962;2023-11-18T11:52:55;10.00;99.90
10472;DHT22;5283;48.876;8.962;2023-11-18T11:57:55;10.10;99.90
10472;DHT22;5283;48.876;8.962;2023-11-18T12:00:25;10.20;99.90
10472;DHT22;5283;48.876;8.962;2023-11-18T12:02:53;10.20;99.90
10472;DHT22;5283;48.876;8.962;2023-11-18T12:05:26;10.30;99.90
10472;DHT22;5283;48.876;8.962;2023-11-18T12:07:53;10.20;99.90
10472;DHT22;5283;48.876;8.962;2023-11-18T12:10:26;10.20;99.90
10472;DHT22;5283;48.876;8.962;2023-11-18T12:13:09;10.10;99.90
10472;DHT22;5283;48.876;8.962;2023-11-18T12:15:54;10.10;99.90
10472;DHT22;5283;48.876;8.962;2023-11-18T12:18:23;10.00;99.90
10472;DHT22;5283;48.876;8.962;2023-11-18T12:20:53;9.90;99.90
10472;DHT22;5283;48.876;8.962;2023-11-18T12:23:28;9.90;99.90
10472;DHT22;5283;48.876;8.962;2023-11-18T12:25:57;9.80;99.90
10472;DHT22;5283;48.876;8.962;2023-11-18T12:28:33;9.70;99.90
10472;DHT22;5283;48.876;8.962;2023-11-18T12:31:12;9.70;99.90
10472;DHT22;5283;48.876;8.962;2023-11-18T12:39:46;9.40;99.90
10472;DHT22;5283;48.876;8.962;2023-11-18T12:47:43;9.00;99.90
10472;DHT22;5283;48.876;8.962;2023-11-18T12:50:12;8.90;99.90
10472;DHT22;5283;48.876;8.962;2023-11-18T12:52:54;8.90;99.90
10472;DHT22;5283;48.876;8.962;2023-11-18T12:55:20;8.90;99.90
10472;DHT22;5283;48.876;8.962;2023-11-18T12:57:48;8.70;99.90
10472;DHT22;5283;48.876;8.962;2023-11-18T13:00:18;8.70;99.90
10472;DHT22;5283;48.876;8.962;2023-11-18T13:02:54;8.60;99.90
10472;DHT22;5283;48.876;8.962;2023-11-18T13:05:21;8.50;99.90
10472;DHT22;5283;48.876;8.962;2023-11-18T13:07:47;8.50;99.90
10472;DHT22;5283;48.876;8.962;2023-11-18T13:10:16;8.50;99.90
10472;DHT22;5283;48.876;8.962;2023-11-18T13:12:43;8.50;99.90
10472;DHT22;5283;48.876;8.962;2023-11-18T13:15:11;8.40;99.90
10472;DHT22;5283;48.876;8.962;2023-11-18T13:17:38;8.40;99.90
10472;DHT22;5283;48.876;8.962;2023-11-18T13:20:13;8.40;99.90
10472;DHT22;5283;48.876;8.962;2023-11-18T13:22:44;8.40;99.90
10472;DHT22;5283;48.876;8.962;2023-11-18T13:25:11;8.30;99.90
10472;DHT22;5283;48.876;8.962;2023-11-18T13:27:40;8.30;99.90
10472;DHT22;5283;48.876;8.962;2023-11-18T13:30:07;8.30;99.90
10472;DHT22;5283;48.876;8.962;2023-11-18T13:32:42;8.30;99.90
10472;DHT22;5283;48.876;8.962;2023-11-18T13:35:12;8.30;99.90
10472;DHT22;5283;48.876;8.962;2023-11-18T13:37:48;8.20;99.90
10472;DHT22;5283;48.876;8.962;2023-11-18T13:40:20;8.20;99.90
10472;DHT22;5283;48.876;8.962;2023-11-18T13:42:47;8.20;99.90
10472;DHT22;5283;48.876;8.962;2023-11-18T13:45:14;8.10;99.90
10472;DHT22;5283;48.876;8.962;2023-11-18T13:47:50;8.20;99.90
10472;DHT22;5283;48.876;8.962;2023-11-18T13:50:18;8.10;99.90
10472;DHT22;5283;48.876;8.962;2023-11-18T13:52:46;8.00;99.90
10472;DHT22;5283;48.876;8.962;2023-11-18T13:55:16;8.10;99.90
10472;DHT22;5283;48.876;8.962;2023-11-18T13:57:59;8.10;99.90
10472;DHT22;5283;48.876;8.962;2023-11-18T14:00:26;8.10;99.90
10472;DHT22;5283;48.876;8.962;2023-11-18T14:02:56;8.10;99.90
10472;DHT22;5283;48.876;8.962;2023-11-18T14:05:23;8.10;99.90
10472;DHT22;5283;48.876;8.962;2023-11-18T14:07:54;8.10;99.90
10472;DHT22;5283;48.876;8.962;2023-11-18T14:10:26;8.10;99.90
10472;DHT22;5283;48.876;8.962;2023-11-18T14:13:05;8.10;99.90
10472;DHT22;5283;48.876;8.962;2023-11-18T14:15:32;8.10;99.90
10472;DHT22;5283;48.876;8.962;2023-11-18T14:18:03;8.10;99.90
10472;DHT22;5283;48.876;8.962;2023-11-18T14:20:30;8.10;99.90
10472;DHT22;5283;48.876;8.962;2023-11-18T14:22:57;8.10;99.90
10472;DHT22;5283;48.876;8.962;2023-11-18T14:25:25;8.10;99.90
10472;DHT22;5283;48.876;8.962;2023-11-18T14:27:52;8.10;99.90
10472;DHT22;5283;48.876;8.962;2023-11-18T14:30:20;8.00;99.90
10472;DHT22;5283;48.876;8.962;2023-11-18T14:32:46;7.90;99.90
10472;DHT22;5283;48.876;8.962;2023-11-18T14:35:13;7.90;99.90
10472;DHT22;5283;48.876;8.962;2023-11-18T14:37:46;7.90;99.90
10472;DHT22;5283;48.876;8.962;2023-11-18T14:40:14;7.90;99.90
10472;DHT22;5283;48.876;8.962;2023-11-18T14:42:47;7.90;99.90
10472;DHT22;5283;48.876;8.962;2023-11-18T14:45:17;7.90;99.90
10472;DHT22;5283;48.876;8.962;2023-11-18T14:47:44;7.80;99.90
10472;DHT22;5283;48.876;8.962;2023-11-18T14:50:19;7.80;99.90
10472;DHT22;5283;48.876;8.962;2023-11-18T14:52:50;7.80;99.90
10472;DHT22;5283;48.876;8.962;2023-11-18T14:55:26;7.80;99.90
10472;DHT22;5283;48.876;8.962;2023-11-18T14:57:53;7.70;99.90
10472;DHT22;5283;48.876;8.962;2023-11-18T15:00:20;7.70;99.90
10472;DHT22;5283;48.876;8.962;2023-11-18T15:02:50;7.70;99.90
10472;DHT22;5283;48.876;8.962;2023-11-18T15:05:18;7.70;99.90
10472;DHT22;5283;48.876;8.962;2023-11-18T15:07:55;7.60;99.90
10472;DHT22;5283;48.876;8.962;2023-11-18T15:10:24;7.60;99.90
10472;DHT22;5283;48.876;8.962;2023-11-18T15:12:53;7.60;99.90
10472;DHT22;5283;48.876;8.962;2023-11-18T15:15:22;7.60;99.90
10472;DHT22;5283;48.876;8.962;2023-11-18T15:17:49;7.50;99.90
10472;DHT22;5283;48.876;8.962;2023-11-18T15:20:17;7.50;99.90
10472;DHT22;5283;48.876;8.962;2023-11-18T15:22:45;7.50;99.90
10472;DHT22;5283;48.876;8.962;2023-11-18T15:25:13;7.50;99.90
10472;DHT22;5283;48.876;8.962;2023-11-18T15:27:41;7.50;99.90
10472;DHT22;5283;48.876;8.962;2023-11-18T15:30:08;7.50;99.90
10472;DHT22;5283;48.876;8.962;2023-11-18T15:32:38;7.50;99.90
10472;DHT22;5283;48.876;8.962;2023-11-18T15:35:06;7.50;99.90
10472;DHT22;5283;48.876;8.962;2023-11-18T15:37:36;7.40;99.90
10472;DHT22;5283;48.876;8.962;2023-11-18T15:40:06;7.40;99.90
10472;DHT22;5283;48.876;8.962;2023-11-18T15:42:41;7.40;99.90
10472;DHT22;5283;48.876;8.962;2023-11-18T15:45:12;7.50;99.90
10472;DHT22;5283;48.876;8.962;2023-11-18T15:47:40;7.40;99.90
10472;DHT22;5283;48.876;8.962;2023-11-18T15:50:10;7.40;99.90
10472;DHT22;5283;48.876;8.962;2023-11-18T15:52:46;7.40;99.90
10472;DHT22;5283;48.876;8.962;2023-11-18T15:55:18;7.40;99.90
10472;DHT22;5283;48.876;8.962;2023-11-18T15:57:47;7.30;99.90
10472;DHT22;5283;48.876;8.962;2023-11-18T16:00:26;7.30;99.90
10472;DHT22;5283;48.876;8.962;2023-11-18T16:02:57;7.30;99.90
10472;DHT22;5283;48.876;8.962;2023-11-18T16:05:27;7.30;99.90
10472;DHT22;5283;48.876;8.962;2023-11-18T16:07:55;7.30;99.90
10472;DHT22;5283;48.876;8.962;2023-11-18T16:10:23;7.30;99.90
10472;DHT22;5283;48.876;8.962;2023-11-18T16:12:51;7.30;99.90
10472;DHT22;5283;48.876;8.962;2023-11-18T16:15:25;7.20;99.90
10472;DHT22;5283;48.876;8.962;2023-11-18T16:17:54;7.30;99.90
10472;DHT22;5283;48.876;8.962;2023-11-18T16:20:22;7.30;99.90
10472;DHT22;5283;48.876;8.962;2023-11-18T16:22:51;7.30;99.90
10472;DHT22;5283;48.876;8.962;2023-11-18T16:25:24;7.30;99.90
10472;DHT22;5283;48.876;8.962;2023-11-18T16:27:54;7.30;99.90
10472;DHT22;5283;48.876;8.962;2023-11-18T16:30:26;7.30;99.90
10472;DHT22;5283;48.876;8.962;2023-11-18T16:32:56;7.30;99.90
10472;DHT22;5283;48.876;8.962;2023-11-18T16:35:24;7.30;99.90
10472;DHT22;5283;48.876;8.962;2023-11-18T16:37:52;7.30;99.90
10472;DHT22;5283;48.876;8.962;2023-11-18T16:40:19;7.30;99.90
10472;DHT22;5283;48.876;8.962;2023-11-18T16:42:48;7.20;99.90
10472;DHT22;5283;48.876;8.962;2023-11-18T16:45:19;7.30;99.90
10472;DHT22;5283;48.876;8.962;2023-11-18T16:47:48;7.20;99.90
10472;DHT22;5283;48.876;8.962;2023-11-18T16:50:19;7.20;99.90